sensor_id;sensor_type;location;lat;lon;timestamp;pressure;altitude;pressure_sealevel;temperature;humidity
18533;BME280;9396;51.510;11.934;2023-04-08T00:01:53;100999.44;;;6.98;100.00
18533;BME280;9396;51.510;11.934;2023-04-08T00:04:20;100986.50;;;7.06;100.00
18533;BME280;9396;51.510;11.934;2023-04-08T00:06:46;100986.50;;;7.06;100.00
18533;BME280;9396;51.510;11.934;2023-04-08T00:09:13;100978.44;;;7.07;100.00
18533;BME280;9396;51.510;11.934;2023-04-08T00:11:41;100982.91;;;7.18;100.00
18533;BME280;9396;51.510;11.934;2023-04-08T00:14:08;100992.50;;;6.97;100.00
18533;BME280;9396;51.510;11.934;2023-04-08T00:16:34;100987.59;;;7.14;100.00
18533;BME280;9396;51.510;11.934;2023-04-08T00:19:01;100974.75;;;7.10;100.00
18533;BME280;9396;51.510;11.934;2023-04-08T00:21:27;100980.13;;;6.97;100.00
18533;BME280;9396;51.510;11.934;2023-04-08T00:23:55;100976.91;;;7.05;100.00
18533;BME280;9396;51.510;11.934;2023-04-08T00:26:22;100982.16;;;6.94;100.00
18533;BME280;9396;51.510;11.934;2023-04-08T00:28:50;100984.09;;;7.03;100.00
18533;BME280;9396;51.510;11.934;2023-04-08T00:31:17;100988.63;;;6.90;100.00
18533;BME280;9396;51.510;11.934;2023-04-08T00:33:43;100991.63;;;6.96;100.00
18533;BME280;9396;51.510;11.934;2023-04-08T00:36:10;100985.97;;;6.90;100.00
18533;BME280;9396;51.510;11.934;2023-04-08T00:38:36;100992.72;;;6.59;100.00
18533;BME280;9396;51.510;11.934;2023-04-08T00:41:03;100989.31;;;6.81;100.00
18533;BME280;9396;51.510;11.934;2023-04-08T00:43:30;100988.00;;;6.86;100.00
18533;BME280;9396;51.510;11.934;2023-04-08T00:45:58;100989.81;;;6.86;100.00
18533;BME280;9396;51.510;11.934;2023-04-08T00:48:24;100989.34;;;6.92;100.00
18533;BME280;9396;51.510;11.934;2023-04-08T00:50:51;100989.84;;;6.97;100.00
18533;BME280;9396;51.510;11.934;2023-04-08T00:53:18;100987.19;;;6.97;100.00
18533;BME280;9396;51.510;11.934;2023-04-08T00:55:45;100982.53;;;7.00;100.00
18533;BME280;9396;51.510;11.934;2023-04-08T00:58:12;100984.84;;;7.05;100.00
18533;BME280;9396;51.510;11.934;2023-04-08T01:00:42;100969.28;;;7.00;100.00
18533;BME280;9396;51.510;11.934;2023-04-08T01:03:15;100979.38;;;6.95;100.00
18533;BME280;9396;51.510;11.934;2023-04-08T01:05:51;100980.72;;;7.01;100.00
18533;BME280;9396;51.510;11.934;2023-04-08T01:08:22;100985.69;;;7.16;100.00
18533;BME280;9396;51.510;11.934;2023-04-08T01:10:53;100988.16;;;7.07;100.00
18533;BME280;9396;51.510;11.934;2023-04-08T01:13:25;100996.41;;;6.80;100.00
18533;BME280;9396;51.510;11.934;2023-04-08T01:15:54;100942.47;;;6.48;100.00
18533;BME280;9396;51.510;11.934;2023-04-08T01:18:23;100995.09;;;6.86;100.00
18533;BME280;9396;51.510;11.934;2023-04-08T01:20:50;100992.72;;;6.94;100.00
18533;BME280;9396;51.510;11.934;2023-04-08T01:23:26;100990.81;;;6.96;100.00
18533;BME280;9396;51.510;11.934;2023-04-08T01:25:56;100986.63;;;7.04;100.00
18533;BME280;9396;51.510;11.934;2023-04-08T01:28:25;100996.56;;;6.90;100.00
18533;BME280;9396;51.510;11.934;2023-04-08T01:30:54;100989.81;;;6.86;100.00
18533;BME280;9396;51.510;11.934;2023-04-08T01:33:22;100999.16;;;6.79;100.00
18533;BME280;9396;51.510;11.934;2023-04-08T01:35:50;100993.63;;;6.71;100.00
18533;BME280;9396;51.510;11.934;2023-04-08T01:38:19;100997.63;;;6.53;100.00
18533;BME280;9396;51.510;11.934;2023-04-08T01:40:46;100998.91;;;6.47;100.00
18533;BME280;9396;51.510;11.934;2023-04-08T01:43:16;100996.09;;;6.61;100.00
18533;BME280;9396;51.510;11.934;2023-04-08T01:45:44;100990.94;;;6.60;100.00
18533;BME280;9396;51.510;11.934;2023-04-08T01:48:12;100996.44;;;6.57;100.00
18533;BME280;9396;51.510;11.934;2023-04-08T01:50:40;100992.03;;;6.68;100.00
18533;BME280;9396;51.510;11.934;2023-04-08T01:53:08;100986.31;;;6.74;100.00
18533;BME280;9396;51.510;11.934;2023-04-08T01:55:36;100988.47;;;6.80;100.00
18533;BME280;9396;51.510;11.934;2023-04-08T01:58:04;100989.06;;;6.73;100.00
18533;BME280;9396;51.510;11.934;2023-04-08T02:00:34;100986.06;;;6.77;100.00
18533;BME280;9396;51.510;11.934;2023-04-08T02:03:04;100980.03;;;6.75;100.00
18533;BME280;9396;51.510;11.934;2023-04-08T02:05:32;100993.75;;;6.80;100.00
18533;BME280;9396;51.510;11.934;2023-04-08T02:07:59;100991.72;;;6.73;100.00
18533;BME280;9396;51.510;11.934;2023-04-08T02:10:26;100988.03;;;6.63;100.00
18533;BME280;9396;51.510;11.934;2023-04-08T02:12:53;100990.59;;;6.40;100.00
18533;BME280;9396;51.510;11.934;2023-04-08T02:15:19;100990.81;;;6.37;100.00
18533;BME280;9396;51.510;11.934;2023-04-08T02:17:50;100989.31;;;6.46;100.00
18533;BME280;9396;51.510;11.934;2023-04-08T02:20:20;100991.03;;;6.58;100.00
18533;BME280;9396;51.510;11.934;2023-04-08T02:22:54;100984.41;;;6.53;100.00
18533;BME280;9396;51.510;11.934;2023-04-08T02:25:24;100983.56;;;6.28;100.00
18533;BME280;9396;51.510;11.934;2023-04-08T02:27:51;100993.00;;;6.43;100.00
18533;BME280;9396;51.510;11.934;2023-04-08T02:30:18;100991.50;;;6.52;100.00
18533;BME280;9396;51.510;11.934;2023-04-08T02:32:47;100998.31;;;6.43;100.00
18533;BME280;9396;51.510;11.934;2023-04-08T02:35:14;100992.06;;;6.21;100.00
18533;BME280;9396;51.510;11.934;2023-04-08T02:37:41;100990.59;;;6.40;100.00
18533;BME280;9396;51.510;11.934;2023-04-08T02:40:23;100995.38;;;6.35;100.00
18533;BME280;9396;51.510;11.934;2023-04-08T02:42:50;100996.41;;;6.45;100.00
18533;BME280;9396;51.510;11.934;2023-04-08T02:45:17;101004.03;;;6.61;100.00
18533;BME280;9396;51.510;11.934;2023-04-08T02:47:43;100995.78;;;6.66;100.00
18533;BME280;9396;51.510;11.934;2023-04-08T02:50:12;100997.09;;;6.71;100.00
18533;BME280;9396;51.510;11.934;2023-04-08T02:52:38;100998.31;;;6.78;100.00
18533;BME280;9396;51.510;11.934;2023-04-08T02:55:06;100994.47;;;6.82;100.00
18533;BME280;9396;51.510;11.934;2023-04-08T02:57:34;101000.88;;;6.91;100.00
18533;BME280;9396;51.510;11.934;2023-04-08T03:00:02;101001.06;;;6.77;100.00
18533;BME280;9396;51.510;11.934;2023-04-08T03:02:29;100996.81;;;6.87;100.00
18533;BME280;9396;51.510;11.934;2023-04-08T03:04:56;101000.81;;;6.69;100.00
18533;BME280;9396;51.510;11.934;2023-04-08T03:07:24;101000.56;;;6.72;100.00
18533;BME280;9396;51.510;11.934;2023-04-08T03:09:50;100996.81;;;6.63;100.00
18533;BME280;9396;51.510;11.934;2023-04-08T03:12:19;101001.44;;;6.72;100.00
18533;BME280;9396;51.510;11.934;2023-04-08T03:14:45;100995.84;;;6.64;100.00
18533;BME280;9396;51.510;11.934;2023-04-08T03:17:12;101003.91;;;6.63;100.00
18533;BME280;9396;51.510;11.934;2023-04-08T03:19:39;101003.56;;;6.67;100.00
18533;BME280;9396;51.510;11.934;2023-04-08T03:22:05;101004.41;;;6.68;100.00
18533;BME280;9396;51.510;11.934;2023-04-08T03:24:35;101006.06;;;6.58;100.00
18533;BME280;9396;51.510;11.934;2023-04-08T03:27:02;101008.97;;;6.66;100.00
18533;BME280;9396;51.510;11.934;2023-04-08T03:29:29;101010.28;;;6.60;100.00
18533;BME280;9396;51.510;11.934;2023-04-08T03:31:56;100999.19;;;6.55;100.00
18533;BME280;9396;51.510;11.934;2023-04-08T03:34:22;101005.94;;;6.59;100.00
18533;BME280;9396;51.510;11.934;2023-04-08T03:36:49;101011.50;;;6.43;100.00
18533;BME280;9396;51.510;11.934;2023-04-08T03:39:16;101001.50;;;6.36;100.00
18533;BME280;9396;51.510;11.934;2023-04-08T03:41:44;101012.00;;;6.48;100.00
18533;BME280;9396;51.510;11.934;2023-04-08T03:44:10;101015.50;;;6.49;100.00
18533;BME280;9396;51.510;11.934;2023-04-08T03:46:37;101007.91;;;6.44;100.00
18533;BME280;9396;51.510;11.934;2023-04-08T03:49:03;101017.03;;;6.40;100.00
18533;BME280;9396;51.510;11.934;2023-04-08T03:51:30;101016.28;;;6.38;100.00
18533;BME280;9396;51.510;11.934;2023-04-08T03:53:56;101016.63;;;6.58;100.00
18533;BME280;9396;51.510;11.934;2023-04-08T03:56:23;101025.78;;;6.65;100.00
18533;BME280;9396;51.510;11.934;2023-04-08T03:58:51;101027.44;;;6.55;100.00
18533;BME280;9396;51.510;11.934;2023-04-08T04:01:18;101040.16;;;6.49;100.00
18533;BME280;9396;51.510;11.934;2023-04-08T04:03:44;101034.00;;;6.49;100.00
18533;BME280;9396;51.510;11.934;2023-04-08T04:06:11;101040.28;;;6.59;100.00
18533;BME280;9396;51.510;11.934;2023-04-08T04:08:38;101040.63;;;6.31;100.00
18533;BME280;9396;51.510;11.934;2023-04-08T04:11:04;101035.06;;;6.46;100.00
18533;BME280;9396;51.510;11.934;2023-04-08T04:13:31;101037.44;;;6.38;100.00
18533;BME280;9396;51.510;11.934;2023-04-08T04:15:59;101037.44;;;6.38;100.00
18533;BME280;9396;51.510;11.934;2023-04-08T04:18:25;101039.16;;;6.27;100.00
18533;BME280;9396;51.510;11.934;2023-04-08T04:20:52;101050.06;;;6.22;100.00
18533;BME280;9396;51.510;11.934;2023-04-08T04:23:18;101042.38;;;6.19;100.00
18533;BME280;9396;51.510;11.934;2023-04-08T04:25:45;101045.00;;;6.19;100.00
18533;BME280;9396;51.510;11.934;2023-04-08T04:28:12;101048.91;;;6.26;100.00
18533;BME280;9396;51.510;11.934;2023-04-08T04:30:38;101051.66;;;6.12;100.00
18533;BME280;9396;51.510;11.934;2023-04-08T04:33:06;101054.00;;;6.04;100.00
18533;BME280;9396;51.510;11.934;2023-04-08T04:35:33;101053.97;;;6.17;100.00
18533;BME280;9396;51.510;11.934;2023-04-08T04:37:59;101058.22;;;6.19;100.00
18533;BME280;9396;51.510;11.934;2023-04-08T04:40:26;101062.09;;;6.26;100.00
18533;BME280;9396;51.510;11.934;2023-04-08T04:42:53;101060.31;;;6.14;100.00
18533;BME280;9396;51.510;11.934;2023-04-08T04:45:19;101057.84;;;6.36;100.00
18533;BME280;9396;51.510;11.934;2023-04-08T04:47:46;101059.00;;;6.32;100.00
18533;BME280;9396;51.510;11.934;2023-04-08T04:50:14;101068.28;;;6.38;100.00
18533;BME280;9396;51.510;11.934;2023-04-08T04:52:41;101069.56;;;6.32;100.00
18533;BME280;9396;51.510;11.934;2023-04-08T04:55:08;101062.19;;;6.25;100.00
18533;BME280;9396;51.510;11.934;2023-04-08T04:57:35;101072.94;;;6.34;100.00
18533;BME280;9396;51.510;11.934;2023-04-08T05:00:01;101077.06;;;6.38;100.00
18533;BME280;9396;51.510;11.934;2023-04-08T05:02:28;101086.22;;;6.45;100.00
18533;BME280;9396;51.510;11.934;2023-04-08T05:04:55;101078.97;;;6.36;100.00
18533;BME280;9396;51.510;11.934;2023-04-08T05:07:23;101092.72;;;6.29;100.00
18533;BME280;9396;51.510;11.934;2023-04-08T05:09:50;101086.97;;;6.47;100.00
18533;BME280;9396;51.510;11.934;2023-04-08T05:12:16;101088.72;;;6.60;100.00
18533;BME280;9396;51.510;11.934;2023-04-08T05:14:44;101088.53;;;6.26;100.00
18533;BME280;9396;51.510;11.934;2023-04-08T05:17:11;101086.84;;;6.49;100.00
18533;BME280;9396;51.510;11.934;2023-04-08T05:19:38;101094.97;;;6.22;100.00
18533;BME280;9396;51.510;11.934;2023-04-08T05:22:04;101105.22;;;6.02;100.00
18533;BME280;9396;51.510;11.934;2023-04-08T05:24:32;101087.97;;;6.21;100.00
18533;BME280;9396;51.510;11.934;2023-04-08T05:27:00;101085.56;;;6.18;100.00
18533;BME280;9396;51.510;11.934;2023-04-08T05:29:27;101080.13;;;6.32;100.00
18533;BME280;9396;51.510;11.934;2023-04-08T05:31:53;101093.47;;;6.31;100.00
18533;BME280;9396;51.510;11.934;2023-04-08T05:34:20;101088.53;;;6.50;100.00
18533;BME280;9396;51.510;11.934;2023-04-08T05:36:47;101095.09;;;6.44;100.00
18533;BME280;9396;51.510;11.934;2023-04-08T05:39:16;101101.84;;;6.48;100.00
18533;BME280;9396;51.510;11.934;2023-04-08T05:41:44;101101.09;;;6.59;100.00
18533;BME280;9396;51.510;11.934;2023-04-08T05:44:11;101104.75;;;6.69;100.00
18533;BME280;9396;51.510;11.934;2023-04-08T05:46:37;101093.00;;;6.49;100.00
18533;BME280;9396;51.510;11.934;2023-04-08T05:49:04;101107.59;;;6.66;100.00
18533;BME280;9396;51.510;11.934;2023-04-08T05:51:30;101105.25;;;6.74;100.00
18533;BME280;9396;51.510;11.934;2023-04-08T05:53:58;101095.63;;;6.73;100.00
18533;BME280;9396;51.510;11.934;2023-04-08T05:56:24;101101.53;;;6.77;100.00
18533;BME280;9396;51.510;11.934;2023-04-08T05:58:52;101110.44;;;6.76;100.00
18533;BME280;9396;51.510;11.934;2023-04-08T06:01:19;101109.03;;;6.83;100.00
18533;BME280;9396;51.510;11.934;2023-04-08T06:03:45;101118.97;;;6.79;100.00
18533;BME280;9396;51.510;11.934;2023-04-08T06:06:12;101117.56;;;6.86;100.00
18533;BME280;9396;51.510;11.934;2023-04-08T06:08:38;101120.84;;;6.90;100.00
18533;BME280;9396;51.510;11.934;2023-04-08T06:11:05;101124.09;;;6.70;100.00
18533;BME280;9396;51.510;11.934;2023-04-08T06:13:32;101131.06;;;6.71;100.00
18533;BME280;9396;51.510;11.934;2023-04-08T06:16:09;101125.84;;;6.58;100.00
18533;BME280;9396;51.510;11.934;2023-04-08T06:18:36;101142.94;;;6.16;100.00
18533;BME280;9396;51.510;11.934;2023-04-08T06:21:02;101142.75;;;6.19;100.00
18533;BME280;9396;51.510;11.934;2023-04-08T06:23:29;101143.56;;;6.07;100.00
18533;BME280;9396;51.510;11.934;2023-04-08T06:25:56;101137.63;;;6.29;100.00
18533;BME280;9396;51.510;11.934;2023-04-08T06:28:23;101139.25;;;6.19;100.00
18533;BME280;9396;51.510;11.934;2023-04-08T06:30:49;101141.53;;;6.36;100.00
18533;BME280;9396;51.510;11.934;2023-04-08T06:33:17;101145.75;;;6.38;100.00
18533;BME280;9396;51.510;11.934;2023-04-08T06:35:44;101166.16;;;6.36;100.00
18533;BME280;9396;51.510;11.934;2023-04-08T06:38:11;101156.19;;;6.53;100.00
18533;BME280;9396;51.510;11.934;2023-04-08T06:40:37;101144.84;;;6.63;100.00
18533;BME280;9396;51.510;11.934;2023-04-08T06:43:04;101141.19;;;6.53;100.00
18533;BME280;9396;51.510;11.934;2023-04-08T06:45:32;101152.56;;;6.53;100.00
18533;BME280;9396;51.510;11.934;2023-04-08T06:47:58;101155.41;;;6.63;100.00
18533;BME280;9396;51.510;11.934;2023-04-08T06:50:26;101151.25;;;6.72;100.00
18533;BME280;9396;51.510;11.934;2023-04-08T06:52:53;101158.44;;;6.70;100.00
18533;BME280;9396;51.510;11.934;2023-04-08T06:55:20;101161.41;;;6.78;100.00
18533;BME280;9396;51.510;11.934;2023-04-08T06:57:46;101162.03;;;6.81;100.00
18533;BME280;9396;51.510;11.934;2023-04-08T07:00:13;101164.75;;;6.92;100.00
18533;BME280;9396;51.510;11.934;2023-04-08T07:02:40;101170.84;;;6.93;100.00
18533;BME280;9396;51.510;11.934;2023-04-08T07:05:07;101168.31;;;6.91;100.00
18533;BME280;9396;51.510;11.934;2023-04-08T07:07:35;101176.41;;;6.77;100.00
18533;BME280;9396;51.510;11.934;2023-04-08T07:10:01;101193.31;;;6.75;100.00
18533;BME280;9396;51.510;11.934;2023-04-08T07:12:28;101185.28;;;6.89;100.00
18533;BME280;9396;51.510;11.934;2023-04-08T07:14:55;101192.91;;;6.81;100.00
18533;BME280;9396;51.510;11.934;2023-04-08T07:17:21;101191.09;;;6.81;100.00
18533;BME280;9396;51.510;11.934;2023-04-08T07:19:48;101195.94;;;6.87;100.00
18533;BME280;9396;51.510;11.934;2023-04-08T07:22:15;101181.53;;;6.91;100.00
18533;BME280;9396;51.510;11.934;2023-04-08T07:24:43;101186.28;;;6.99;100.00
18533;BME280;9396;51.510;11.934;2023-04-08T07:27:14;101192.47;;;6.87;100.00
18533;BME280;9396;51.510;11.934;2023-04-08T07:29:40;101186.59;;;6.94;100.00
18533;BME280;9396;51.510;11.934;2023-04-08T07:32:07;101189.47;;;6.91;100.00
18533;BME280;9396;51.510;11.934;2023-04-08T07:34:33;101190.72;;;6.98;100.00
18533;BME280;9396;51.510;11.934;2023-04-08T07:37:00;101187.44;;;6.95;100.00
18533;BME280;9396;51.510;11.934;2023-04-08T07:39:27;101192.31;;;7.01;100.00
18533;BME280;9396;51.510;11.934;2023-04-08T07:41:55;101180.25;;;6.97;100.00
18533;BME280;9396;51.510;11.934;2023-04-08T07:44:22;101181.78;;;7.12;100.00
18533;BME280;9396;51.510;11.934;2023-04-08T07:46:48;101190.44;;;7.14;100.00
18533;BME280;9396;51.510;11.934;2023-04-08T07:49:16;101181.44;;;7.16;100.00
18533;BME280;9396;51.510;11.934;2023-04-08T07:51:42;101193.19;;;7.12;100.00
18533;BME280;9396;51.510;11.934;2023-04-08T07:54:09;101189.56;;;7.26;100.00
18533;BME280;9396;51.510;11.934;2023-04-08T07:56:37;101186.22;;;7.35;100.00
18533;BME280;9396;51.510;11.934;2023-04-08T07:59:06;101194.63;;;7.29;100.00
18533;BME280;9396;51.510;11.934;2023-04-08T08:01:32;101195.06;;;7.23;100.00
18533;BME280;9396;51.510;11.934;2023-04-08T08:04:00;101198.50;;;7.12;100.00
18533;BME280;9396;51.510;11.934;2023-04-08T08:06:27;101194.22;;;7.22;100.00
18533;BME280;9396;51.510;11.934;2023-04-08T08:08:54;101198.50;;;7.36;100.00
18533;BME280;9396;51.510;11.934;2023-04-08T08:11:21;101200.00;;;7.51;100.00
18533;BME280;9396;51.510;11.934;2023-04-08T08:13:47;101214.09;;;7.28;100.00
18533;BME280;9396;51.510;11.934;2023-04-08T08:16:15;101214.19;;;7.26;100.00
18533;BME280;9396;51.510;11.934;2023-04-08T08:18:42;101221.06;;;7.05;100.00
18533;BME280;9396;51.510;11.934;2023-04-08T08:21:08;101231.13;;;7.00;100.00
18533;BME280;9396;51.510;11.934;2023-04-08T08:23:35;101229.69;;;7.20;100.00
18533;BME280;9396;51.510;11.934;2023-04-08T08:26:04;101239.75;;;7.15;100.00
18533;BME280;9396;51.510;11.934;2023-04-08T08:28:31;101241.56;;;7.14;100.00
18533;BME280;9396;51.510;11.934;2023-04-08T08:30:58;101243.88;;;7.19;100.00
18533;BME280;9396;51.510;11.934;2023-04-08T08:33:26;101248.09;;;7.21;100.00
18533;BME280;9396;51.510;11.934;2023-04-08T08:35:53;101248.81;;;6.87;100.00
18533;BME280;9396;51.510;11.934;2023-04-08T08:38:19;101253.13;;;7.01;100.00
18533;BME280;9396;51.510;11.934;2023-04-08T08:40:46;101249.09;;;7.08;100.00
18533;BME280;9396;51.510;11.934;2023-04-08T08:43:19;101255.13;;;7.10;100.00
18533;BME280;9396;51.510;11.934;2023-04-08T08:45:45;101238.84;;;7.27;100.00
18533;BME280;9396;51.510;11.934;2023-04-08T08:48:12;101246.00;;;7.37;100.00
18533;BME280;9396;51.510;11.934;2023-04-08T08:50:40;101257.50;;;7.25;100.00
18533;BME280;9396;51.510;11.934;2023-04-08T08:53:06;101255.47;;;7.29;100.00
18533;BME280;9396;51.510;11.934;2023-04-08T08:55:34;101260.59;;;7.43;100.00
18533;BME280;9396;51.510;11.934;2023-04-08T08:58:01;101262.19;;;7.45;100.00
18533;BME280;9396;51.510;11.934;2023-04-08T09:00:31;101268.69;;;7.29;100.00
18533;BME280;9396;51.510;11.934;2023-04-08T09:03:13;101265.03;;;7.42;100.00
18533;BME280;9396;51.510;11.934;2023-04-08T09:05:48;101270.06;;;7.58;100.00
18533;BME280;9396;51.510;11.934;2023-04-08T09:08:28;101279.00;;;7.68;100.00
18533;BME280;9396;51.510;11.934;2023-04-08T09:11:09;101261.81;;;7.74;100.00
18533;BME280;9396;51.510;11.934;2023-04-08T09:13:36;101273.66;;;7.81;100.00
18533;BME280;9396;51.510;11.934;2023-04-08T09:16:05;101158.00;;;7.12;100.00
18533;BME280;9396;51.510;11.934;2023-04-08T09:18:35;101278.19;;;7.44;100.00
18533;BME280;9396;51.510;11.934;2023-04-08T09:21:05;101280.09;;;7.42;100.00
18533;BME280;9396;51.510;11.934;2023-04-08T09:23:39;101281.28;;;7.62;100.00
18533;BME280;9396;51.510;11.934;2023-04-08T09:26:07;101277.84;;;7.48;100.00
18533;BME280;9396;51.510;11.934;2023-04-08T09:28:34;101278.94;;;7.57;100.00
18533;BME280;9396;51.510;11.934;2023-04-08T09:31:17;101286.03;;;7.80;100.00
18533;BME280;9396;51.510;11.934;2023-04-08T09:33:45;101289.72;;;7.90;100.00
18533;BME280;9396;51.510;11.934;2023-04-08T09:36:14;101293.13;;;8.14;100.00
18533;BME280;9396;51.510;11.934;2023-04-08T09:38:41;101286.28;;;8.23;100.00
18533;BME280;9396;51.510;11.934;2023-04-08T09:41:08;101290.13;;;8.08;100.00
18533;BME280;9396;51.510;11.934;2023-04-08T09:43:41;101288.66;;;8.04;100.00
18533;BME280;9396;51.510;11.934;2023-04-08T09:46:10;101300.22;;;8.03;100.00
18533;BME280;9396;51.510;11.934;2023-04-08T09:48:39;101289.78;;;8.23;100.00
18533;BME280;9396;51.510;11.934;2023-04-08T09:51:11;101290.00;;;8.55;100.00
18533;BME280;9396;51.510;11.934;2023-04-08T09:53:45;101293.00;;;8.73;100.00
18533;BME280;9396;51.510;11.934;2023-04-08T09:56:13;101284.59;;;8.90;100.00
18533;BME280;9396;51.510;11.934;2023-04-08T09:58:46;101286.53;;;8.88;100.00
18533;BME280;9396;51.510;11.934;2023-04-08T10:01:17;101287.47;;;8.98;100.00
18533;BME280;9396;51.510;11.934;2023-04-08T10:03:50;101303.03;;;8.80;100.00
18533;BME280;9396;51.510;11.934;2023-04-08T10:06:18;101287.94;;;8.47;100.00
18533;BME280;9396;51.510;11.934;2023-04-08T10:08:47;101294.25;;;8.69;100.00
18533;BME280;9396;51.510;11.934;2023-04-08T10:11:14;101296.16;;;8.78;100.00
18533;BME280;9396;51.510;11.934;2023-04-08T10:13:41;101283.88;;;8.99;100.00
18533;BME280;9396;51.510;11.934;2023-04-08T10:16:18;101292.75;;;9.20;100.00
18533;BME280;9396;51.510;11.934;2023-04-08T10:18:45;101292.50;;;9.01;100.00
18533;BME280;9396;51.510;11.934;2023-04-08T10:21:35;101294.34;;;9.11;100.00
18533;BME280;9396;51.510;11.934;2023-04-08T10:24:07;101296.88;;;8.91;99.52
18533;BME280;9396;51.510;11.934;2023-04-08T10:26:35;101299.53;;;9.02;100.00
18533;BME280;9396;51.510;11.934;2023-04-08T10:29:30;101306.63;;;9.01;100.00
18533;BME280;9396;51.510;11.934;2023-04-08T10:31:58;101312.44;;;8.84;99.16
18533;BME280;9396;51.510;11.934;2023-04-08T10:34:26;101307.63;;;9.00;98.74
18533;BME280;9396;51.510;11.934;2023-04-08T10:36:54;101300.25;;;9.04;99.72
18533;BME280;9396;51.510;11.934;2023-04-08T10:39:24;101307.47;;;8.80;99.17
18533;BME280;9396;51.510;11.934;2023-04-08T10:41:52;101307.75;;;8.99;100.00
18533;BME280;9396;51.510;11.934;2023-04-08T10:44:21;101309.41;;;8.89;100.00
18533;BME280;9396;51.510;11.934;2023-04-08T10:46:49;101309.53;;;8.98;100.00
18533;BME280;9396;51.510;11.934;2023-04-08T10:49:16;101302.88;;;9.26;100.00
18533;BME280;9396;51.510;11.934;2023-04-08T10:51:44;101300.31;;;9.46;100.00
18533;BME280;9396;51.510;11.934;2023-04-08T10:54:12;101293.50;;;9.64;99.96
18533;BME280;9396;51.510;11.934;2023-04-08T10:56:45;101301.19;;;9.25;97.29
18533;BME280;9396;51.510;11.934;2023-04-08T10:59:12;101292.97;;;9.39;99.61
18533;BME280;9396;51.510;11.934;2023-04-08T11:01:42;101291.75;;;9.43;98.03
18533;BME280;9396;51.510;11.934;2023-04-08T11:04:13;101292.22;;;9.48;97.94
18533;BME280;9396;51.510;11.934;2023-04-08T11:06:41;101291.50;;;9.46;97.28
18533;BME280;9396;51.510;11.934;2023-04-08T11:09:08;101288.28;;;9.63;97.63
18533;BME280;9396;51.510;11.934;2023-04-08T11:11:35;101286.84;;;9.70;97.23
18533;BME280;9396;51.510;11.934;2023-04-08T11:14:05;101287.16;;;9.77;97.01
18533;BME280;9396;51.510;11.934;2023-04-08T11:16:32;101284.50;;;9.77;95.94
18533;BME280;9396;51.510;11.934;2023-04-08T11:19:01;101287.00;;;9.89;97.33
18533;BME280;9396;51.510;11.934;2023-04-08T11:21:29;101288.88;;;9.98;95.04
18533;BME280;9396;51.510;11.934;2023-04-08T11:23:56;101284.88;;;10.04;94.52
18533;BME280;9396;51.510;11.934;2023-04-08T11:26:24;101289.78;;;9.88;94.16
18533;BME280;9396;51.510;11.934;2023-04-08T11:28:51;101292.84;;;9.72;94.17
18533;BME280;9396;51.510;11.934;2023-04-08T11:31:20;101287.63;;;9.82;93.46
18533;BME280;9396;51.510;11.934;2023-04-08T11:33:48;101294.34;;;9.97;92.79
18533;BME280;9396;51.510;11.934;2023-04-08T11:36:17;101289.34;;;10.03;91.90
18533;BME280;9396;51.510;11.934;2023-04-08T11:38:45;101292.13;;;10.02;92.15
18533;BME280;9396;51.510;11.934;2023-04-08T11:41:13;101286.22;;;9.98;91.14
18533;BME280;9396;51.510;11.934;2023-04-08T11:43:50;101291.59;;;9.87;91.97
18533;BME280;9396;51.510;11.934;2023-04-08T11:46:16;101288.59;;;9.81;91.21
18533;BME280;9396;51.510;11.934;2023-04-08T11:49:00;101292.34;;;9.78;91.86
18533;BME280;9396;51.510;11.934;2023-04-08T11:51:27;101287.19;;;9.97;91.74
18533;BME280;9396;51.510;11.934;2023-04-08T11:53:54;101287.91;;;9.99;91.31
18533;BME280;9396;51.510;11.934;2023-04-08T11:56:22;101283.88;;;10.05;90.79
18533;BME280;9396;51.510;11.934;2023-04-08T11:58:49;101295.84;;;10.10;92.24
18533;BME280;9396;51.510;11.934;2023-04-08T12:01:16;101286.91;;;10.11;90.98
18533;BME280;9396;51.510;11.934;2023-04-08T12:03:57;101291.84;;;9.84;89.57
18533;BME280;9396;51.510;11.934;2023-04-08T12:06:26;101288.94;;;9.87;89.71
18533;BME280;9396;51.510;11.934;2023-04-08T12:08:53;101290.69;;;9.77;90.23
18533;BME280;9396;51.510;11.934;2023-04-08T12:11:20;101142.13;;;9.01;90.45
18533;BME280;9396;51.510;11.934;2023-04-08T12:13:47;101291.78;;;9.95;91.76
18533;BME280;9396;51.510;11.934;2023-04-08T12:16:15;101296.59;;;10.01;92.02
18533;BME280;9396;51.510;11.934;2023-04-08T12:18:42;101296.28;;;9.95;91.38
18533;BME280;9396;51.510;11.934;2023-04-08T12:21:10;101295.09;;;10.08;91.35
18533;BME280;9396;51.510;11.934;2023-04-08T12:23:36;101298.03;;;10.05;91.04
18533;BME280;9396;51.510;11.934;2023-04-08T12:26:03;101289.94;;;10.27;90.77
18533;BME280;9396;51.510;11.934;2023-04-08T12:28:30;101297.81;;;10.29;91.10
18533;BME280;9396;51.510;11.934;2023-04-08T12:30:56;101305.91;;;10.48;92.23
18533;BME280;9396;51.510;11.934;2023-04-08T12:33:23;101303.38;;;10.46;92.33
18533;BME280;9396;51.510;11.934;2023-04-08T12:35:50;101297.09;;;10.27;90.73
18533;BME280;9396;51.510;11.934;2023-04-08T12:38:18;101308.31;;;10.30;91.95
18533;BME280;9396;51.510;11.934;2023-04-08T12:40:45;101299.56;;;10.39;91.42
18533;BME280;9396;51.510;11.934;2023-04-08T12:43:11;101302.72;;;10.54;92.49
18533;BME280;9396;51.510;11.934;2023-04-08T12:45:38;101301.66;;;10.36;91.65
18533;BME280;9396;51.510;11.934;2023-04-08T12:48:04;101299.81;;;10.36;92.58
18533;BME280;9396;51.510;11.934;2023-04-08T12:50:31;101305.56;;;10.41;93.83
18533;BME280;9396;51.510;11.934;2023-04-08T12:52:58;101301.75;;;10.34;96.01
18533;BME280;9396;51.510;11.934;2023-04-08T12:55:26;101302.75;;;10.33;96.64